createdAt,value
2023-04-20T00:01:26.103Z,39.34
2023-04-20T00:03:55.189Z,39.50
2023-04-20T00:06:25.494Z,39.19
2023-04-20T00:08:54.814Z,39.39
2023-04-20T00:11:23.878Z,39.29
2023-04-20T00:13:53.008Z,39.08
2023-04-20T00:16:23.734Z,39.32
2023-04-20T00:18:53.251Z,39.00
2023-04-20T00:21:24.279Z,39.21
2023-04-20T00:23:53.980Z,38.95
2023-04-20T00:26:22.438Z,39.36
2023-04-20T00:28:52.157Z,39.04
2023-04-20T00:31:34.754Z,39.17
2023-04-20T00:34:03.955Z,39.26
2023-04-20T00:36:33.386Z,39.31
2023-04-20T00:39:02.667Z,38.98
2023-04-20T00:41:31.724Z,38.99
2023-04-20T00:44:01.011Z,39.40
2023-04-20T00:46:34.331Z,39.28
2023-04-20T00:49:03.921Z,39.34
2023-04-20T00:51:33.143Z,39.23
2023-04-20T00:54:02.282Z,39.22
2023-04-20T00:56:31.676Z,39.37
2023-04-20T00:59:03.889Z,38.97
2023-04-20T01:01:35.090Z,39.13
2023-04-20T01:04:04.304Z,39.18
2023-04-20T01:06:32.679Z,39.04
2023-04-20T01:09:01.054Z,38.97
2023-04-20T01:11:30.296Z,39.02
2023-04-20T01:13:59.608Z,38.94
2023-04-20T01:16:29.200Z,39.13
2023-04-20T01:19:00.117Z,38.96
2023-04-20T01:21:29.250Z,39.19
2023-04-20T01:23:59.988Z,39.28
2023-04-20T01:26:31.490Z,39.06
2023-04-20T01:29:00.697Z,39.11
2023-04-20T01:31:29.748Z,39.17
2023-04-20T01:33:58.827Z,39.08
2023-04-20T01:36:29.091Z,39.17
2023-04-20T01:39:06.440Z,38.79
2023-04-20T01:41:35.931Z,39.00
2023-04-20T01:44:07.773Z,38.98
2023-04-20T01:46:43.513Z,39.23
2023-04-20T01:49:15.769Z,38.95
2023-04-20T01:51:46.148Z,38.99
2023-04-20T01:54:28.231Z,39.14
2023-04-20T01:57:00.220Z,39.16
2023-04-20T01:59:29.476Z,38.93
2023-04-20T02:02:01.449Z,38.96
2023-04-20T02:04:30.656Z,38.92
2023-04-20T02:07:01.987Z,38.79
2023-04-20T02:09:32.829Z,38.71
2023-04-20T02:12:02.291Z,39.15
2023-04-20T02:14:31.432Z,38.91
2023-04-20T02:17:01.262Z,39.22
2023-04-20T02:19:30.752Z,39.05
2023-04-20T02:21:58.699Z,39.12
2023-04-20T02:24:27.767Z,39.25
2023-04-20T02:26:58.717Z,39.04
2023-04-20T02:29:27.762Z,39.29
2023-04-20T02:31:55.808Z,38.97
2023-04-20T02:34:23.830Z,39.62
2023-04-20T02:36:51.871Z,39.51
2023-04-20T02:39:20.176Z,39.56
2023-04-20T02:41:48.406Z,39.74
2023-04-20T02:44:17.878Z,39.29
2023-04-20T02:46:45.993Z,39.68
2023-04-20T02:49:14.027Z,39.54
2023-04-20T02:51:42.021Z,39.79
2023-04-20T02:54:10.069Z,39.37
2023-04-20T02:56:38.100Z,39.53
2023-04-20T02:59:06.144Z,39.15
2023-04-20T03:01:35.568Z,39.17
2023-04-20T03:04:04.732Z,39.24
2023-04-20T03:06:33.424Z,39.33
2023-04-20T03:09:01.623Z,39.38
2023-04-20T03:11:29.591Z,38.97
2023-04-20T03:13:57.663Z,39.18
2023-04-20T03:16:25.664Z,39.31
2023-04-20T03:18:55.029Z,39.17
2023-04-20T03:21:24.485Z,39.09
2023-04-20T03:23:52.496Z,38.94
2023-04-20T03:26:20.600Z,39.01
2023-04-20T03:28:48.694Z,38.95
2023-04-20T03:31:16.829Z,38.76
2023-04-20T03:33:44.841Z,38.93
2023-04-20T03:36:14.914Z,38.96
2023-04-20T03:38:44.440Z,39.03
2023-04-20T03:41:12.410Z,38.75
2023-04-20T03:43:41.446Z,38.83
2023-04-20T03:46:09.467Z,38.75
2023-04-20T03:48:37.566Z,38.93
2023-04-20T03:51:06.195Z,38.73
2023-04-20T03:53:38.897Z,38.89
2023-04-20T03:56:07.894Z,38.95
2023-04-20T03:58:35.951Z,38.86
2023-04-20T04:01:04.258Z,38.96
2023-04-20T04:03:32.566Z,38.72
2023-04-20T04:06:00.764Z,38.58
2023-04-20T04:08:29.038Z,38.72
2023-04-20T04:10:58.761Z,38.79
2023-04-20T04:13:27.037Z,38.74
2023-04-20T04:15:55.016Z,38.83
2023-04-20T04:18:24.429Z,38.46
2023-04-20T04:20:52.905Z,38.63
2023-04-20T04:23:20.903Z,38.56
2023-04-20T04:25:48.891Z,38.67
2023-04-20T04:28:18.269Z,38.31
2023-04-20T04:30:47.588Z,38.69
2023-04-20T04:33:19.262Z,38.68
2023-04-20T04:35:48.828Z,38.22
2023-04-20T04:38:16.880Z,38.31
2023-04-20T04:40:45.997Z,38.43
2023-04-20T04:43:14.148Z,38.37
2023-04-20T04:45:43.573Z,38.72
2023-04-20T04:48:12.529Z,38.35
2023-04-20T04:50:40.646Z,38.52
2023-04-20T04:53:09.914Z,38.44
2023-04-20T04:55:38.002Z,38.16
2023-04-20T04:58:05.949Z,38.60
2023-04-20T05:00:34.457Z,38.55
2023-04-20T05:03:04.001Z,38.64
2023-04-20T05:05:32.125Z,38.59
2023-04-20T05:08:00.157Z,38.49
2023-04-20T05:10:28.138Z,38.28
2023-04-20T05:12:56.406Z,38.44
2023-04-20T05:15:24.663Z,38.38
2023-04-20T05:17:52.801Z,38.33
2023-04-20T05:20:22.416Z,38.49
2023-04-20T05:22:50.341Z,38.48
2023-04-20T05:25:18.366Z,38.21
2023-04-20T05:27:46.492Z,38.18
2023-04-20T05:30:21.269Z,38.22
2023-04-20T05:32:51.987Z,38.26
2023-04-20T05:35:22.536Z,38.41
2023-04-20T05:37:50.525Z,38.20
2023-04-20T05:40:18.667Z,38.03
2023-04-20T05:42:46.779Z,38.30
2023-04-20T05:45:14.805Z,38.22
2023-04-20T05:47:42.853Z,38.18
2023-04-20T05:50:11.697Z,38.23
2023-04-20T05:52:41.088Z,38.17
2023-04-20T05:55:09.874Z,38.47
2023-04-20T05:57:42.817Z,38.18
2023-04-20T06:00:12.508Z,38.00
2023-04-20T06:02:40.816Z,38.33
2023-04-20T06:05:10.694Z,38.12
2023-04-20T06:07:40.587Z,38.25
2023-04-20T06:10:09.443Z,37.89
2023-04-20T06:12:37.588Z,38.32
2023-04-20T06:15:08.352Z,38.21
2023-04-20T06:17:37.497Z,38.13
2023-04-20T06:20:07.002Z,37.98
2023-04-20T06:22:35.598Z,37.91
2023-04-20T06:25:05.373Z,38.05
2023-04-20T06:27:33.432Z,38.04
2023-04-20T06:30:01.379Z,37.96
2023-04-20T06:32:29.448Z,37.73
2023-04-20T06:34:57.499Z,37.84
2023-04-20T06:37:25.549Z,38.03
2023-04-20T06:39:55.025Z,38.03
2023-04-20T06:42:24.562Z,38.02
2023-04-20T06:44:52.563Z,37.71
2023-04-20T06:47:20.859Z,37.66
2023-04-20T06:49:48.980Z,37.62
2023-04-20T06:52:20.291Z,38.07
2023-04-20T06:54:49.638Z,38.06
2023-04-20T06:57:18.832Z,38.33
2023-04-20T06:59:49.630Z,38.61
2023-04-20T07:02:19.014Z,38.43
2023-04-20T07:04:48.270Z,38.11
2023-04-20T07:07:17.787Z,38.18
2023-04-20T07:09:46.897Z,38.54
2023-04-20T07:12:16.513Z,38.29
2023-04-20T07:14:44.476Z,38.30
2023-04-20T07:17:14.892Z,38.31
2023-04-20T07:19:42.881Z,38.24
2023-04-20T07:22:11.035Z,38.70
2023-04-20T07:24:39.056Z,38.31
2023-04-20T07:27:08.608Z,38.76
2023-04-20T07:29:36.663Z,38.27
2023-04-20T07:32:04.884Z,38.73
2023-04-20T07:34:34.623Z,38.61
2023-04-20T07:37:02.953Z,38.29
2023-04-20T07:39:30.932Z,38.29
2023-04-20T07:41:59.053Z,39.37
2023-04-20T07:44:27.170Z,39.52
2023-04-20T07:46:57.590Z,39.79
2023-04-20T07:49:26.744Z,39.19
2023-04-20T07:52:05.957Z,39.26
2023-04-20T07:54:41.174Z,39.04
2023-04-20T07:57:09.638Z,38.81
2023-04-20T07:59:37.726Z,38.92
2023-04-20T08:02:05.811Z,38.74
2023-04-20T08:04:34.256Z,38.86
2023-04-20T08:07:04.085Z,39.00
2023-04-20T08:09:32.197Z,38.69
2023-04-20T08:12:00.379Z,38.80
2023-04-20T08:14:28.442Z,38.96
2023-04-20T08:16:56.519Z,38.70
2023-04-20T08:19:24.532Z,38.89
2023-04-20T08:21:52.562Z,38.70
2023-04-20T08:24:22.003Z,38.80
2023-04-20T08:26:50.057Z,38.65
2023-04-20T08:29:18.619Z,38.39
2023-04-20T08:31:46.923Z,38.62
2023-04-20T08:34:15.535Z,38.39
2023-04-20T08:36:44.120Z,38.59
2023-04-20T08:39:13.419Z,38.39
2023-04-20T08:41:42.956Z,38.62
2023-04-20T08:44:11.101Z,38.16
2023-04-20T08:46:39.310Z,38.29
2023-04-20T08:49:07.298Z,38.20
2023-04-20T08:51:35.308Z,38.30
2023-04-20T08:54:06.220Z,37.95
2023-04-20T08:56:36.206Z,38.37
2023-04-20T08:59:10.062Z,38.12
2023-04-20T09:01:39.356Z,38.06
2023-04-20T09:04:17.202Z,37.89
2023-04-20T09:06:45.975Z,37.79
2023-04-20T09:09:13.992Z,38.13
2023-04-20T09:11:42.130Z,38.11
2023-04-20T09:14:12.563Z,37.79
2023-04-20T09:16:40.774Z,37.80
2023-04-20T09:19:09.552Z,37.87
2023-04-20T09:21:38.080Z,37.73
2023-04-20T09:24:07.454Z,37.81
2023-04-20T09:26:35.571Z,37.63
2023-04-20T09:29:03.949Z,37.50
2023-04-20T09:31:33.562Z,37.31
2023-04-20T09:34:02.609Z,37.39
2023-04-20T09:36:37.794Z,37.38
2023-04-20T09:39:07.841Z,37.11
2023-04-20T09:41:36.355Z,37.36
2023-04-20T09:44:04.390Z,37.26
2023-04-20T09:46:34.616Z,37.23
2023-04-20T09:49:04.587Z,37.22
2023-04-20T09:51:33.527Z,37.04
2023-04-20T09:54:02.536Z,37.30
2023-04-20T09:56:30.789Z,37.08
2023-04-20T09:58:59.007Z,37.38
2023-04-20T10:01:27.385Z,37.47
2023-04-20T10:03:57.574Z,37.24
2023-04-20T10:06:27.819Z,37.38
2023-04-20T10:08:56.002Z,37.39
2023-04-20T10:11:37.507Z,36.98
2023-04-20T10:14:17.088Z,37.38
2023-04-20T10:16:45.488Z,37.01
2023-04-20T10:19:14.934Z,37.24
2023-04-20T10:21:49.709Z,37.40
2023-04-20T10:24:19.681Z,36.97
2023-04-20T10:26:48.796Z,36.97
2023-04-20T10:29:25.170Z,37.06
2023-04-20T10:31:53.485Z,36.76
2023-04-20T10:34:32.667Z,36.71
2023-04-20T10:37:10.265Z,36.46
2023-04-20T10:39:38.989Z,36.77
2023-04-20T10:42:07.041Z,36.72
2023-04-20T10:44:35.619Z,36.64
2023-04-20T10:47:03.676Z,36.92
2023-04-20T10:49:33.057Z,36.61
2023-04-20T10:52:01.516Z,36.57
2023-04-20T10:54:38.107Z,36.71
2023-04-20T10:57:06.838Z,36.52
2023-04-20T10:59:37.264Z,36.57
2023-04-20T11:02:08.168Z,36.62
2023-04-20T11:04:38.068Z,36.57
2023-04-20T11:07:07.117Z,36.23
2023-04-20T11:09:35.189Z,36.42
2023-04-20T11:12:04.743Z,36.04
2023-04-20T11:14:33.687Z,36.38
2023-04-20T11:17:02.224Z,36.22
2023-04-20T11:19:31.541Z,36.30
2023-04-20T11:22:01.032Z,36.25
2023-04-20T11:24:29.683Z,36.18
2023-04-20T11:26:58.162Z,35.92
2023-04-20T11:29:30.291Z,35.86
2023-04-20T11:31:58.648Z,35.88
2023-04-20T11:34:26.941Z,35.89
2023-04-20T11:36:56.859Z,36.03
2023-04-20T11:39:27.115Z,35.76
2023-04-20T11:41:55.193Z,36.00
2023-04-20T11:44:24.013Z,35.66
2023-04-20T11:46:54.311Z,36.01
2023-04-20T11:49:22.615Z,35.85
2023-04-20T11:51:51.178Z,35.73
2023-04-20T11:54:20.145Z,36.06
2023-04-20T11:56:49.653Z,35.60
2023-04-20T11:59:20.117Z,36.09
2023-04-20T12:01:48.840Z,36.07
2023-04-20T12:04:17.146Z,35.74
2023-04-20T12:06:46.065Z,35.73
2023-04-20T12:09:15.271Z,35.94
2023-04-20T12:11:43.381Z,35.74
2023-04-20T12:14:12.779Z,35.65
2023-04-20T12:16:40.788Z,35.94
2023-04-20T12:19:09.388Z,35.54
2023-04-20T12:21:37.526Z,35.92
2023-04-20T12:24:05.782Z,35.87
2023-04-20T12:26:38.498Z,35.96
2023-04-20T12:29:07.361Z,35.86
2023-04-20T12:31:37.305Z,35.61
2023-04-20T12:34:05.504Z,35.78
2023-04-20T12:36:35.091Z,35.49
2023-04-20T12:39:04.267Z,35.67
2023-04-20T12:41:33.256Z,35.59
2023-04-20T12:44:04.396Z,35.40
2023-04-20T12:46:34.283Z,35.65
2023-04-20T12:49:03.680Z,35.56
2023-04-20T12:51:31.885Z,35.53
2023-04-20T12:54:00.172Z,35.21
2023-04-20T12:56:28.148Z,35.34
2023-04-20T12:58:56.183Z,35.57
2023-04-20T13:01:24.165Z,35.52
2023-04-20T13:03:52.568Z,35.58
2023-04-20T13:06:22.622Z,35.51
2023-04-20T13:08:51.183Z,35.39
2023-04-20T13:11:19.163Z,35.42
2023-04-20T13:13:47.221Z,35.17
2023-04-20T13:16:15.377Z,35.29
2023-04-20T13:18:43.488Z,35.24
2023-04-20T13:21:11.546Z,35.16
2023-04-20T13:23:41.135Z,35.06
2023-04-20T13:26:09.296Z,35.29
2023-04-20T13:28:37.785Z,34.87
2023-04-20T13:31:06.111Z,34.79
2023-04-20T13:33:34.170Z,35.20
2023-04-20T13:36:02.158Z,35.22
2023-04-20T13:38:30.178Z,35.02
2023-04-20T13:40:59.567Z,34.66
2023-04-20T13:43:27.601Z,35.02
2023-04-20T13:45:55.767Z,34.76
2023-04-20T13:48:23.896Z,34.92
2023-04-20T13:50:54.068Z,34.72
2023-04-20T13:53:22.132Z,34.64
2023-04-20T13:55:50.354Z,34.50
2023-04-20T13:58:19.665Z,34.42
2023-04-20T14:00:47.708Z,34.65
2023-04-20T14:03:16.022Z,34.54
2023-04-20T14:05:44.946Z,34.64
2023-04-20T14:08:13.689Z,34.97
2023-04-20T14:10:42.405Z,34.73
2023-04-20T14:13:10.332Z,34.73
2023-04-20T14:15:40.051Z,34.41
2023-04-20T14:18:08.126Z,34.42
2023-04-20T14:20:36.186Z,34.55
2023-04-20T14:23:04.116Z,34.29
2023-04-20T14:25:32.123Z,34.39
2023-04-20T14:28:00.235Z,34.63
2023-04-20T14:30:28.330Z,34.49
2023-04-20T14:32:58.494Z,34.46
2023-04-20T14:35:27.315Z,34.46
2023-04-20T14:37:55.320Z,34.31
2023-04-20T14:40:23.383Z,34.28
2023-04-20T14:42:51.410Z,34.01
2023-04-20T14:45:19.505Z,33.95
2023-04-20T14:47:47.567Z,33.96
2023-04-20T14:50:16.891Z,33.91
2023-04-20T14:52:44.941Z,33.50
2023-04-20T14:55:12.938Z,33.51
2023-04-20T14:57:40.972Z,33.22
2023-04-20T15:00:10.590Z,33.23
2023-04-20T15:02:38.746Z,33.18
2023-04-20T15:05:10.212Z,33.19
2023-04-20T15:07:40.352Z,32.99
2023-04-20T15:10:09.396Z,32.85
2023-04-20T15:12:37.466Z,33.05
2023-04-20T15:15:06.124Z,32.75
2023-04-20T15:17:34.109Z,32.94
2023-04-20T15:20:02.254Z,32.89
2023-04-20T15:22:30.934Z,32.73
2023-04-20T15:25:00.465Z,32.96
2023-04-20T15:27:28.850Z,32.85
2023-04-20T15:29:58.106Z,33.00
2023-04-20T15:32:26.416Z,33.30
2023-04-20T15:34:54.505Z,33.48
2023-04-20T15:37:22.572Z,33.45
2023-04-20T15:39:50.596Z,33.85
2023-04-20T15:42:19.977Z,33.85
2023-04-20T15:47:34.136Z,33.58
2023-04-20T15:50:03.471Z,33.29
2023-04-20T15:52:31.781Z,33.66
2023-04-20T15:54:59.818Z,33.39
2023-04-20T15:57:30.307Z,33.67
2023-04-20T16:00:32.631Z,33.76
2023-04-20T16:03:01.455Z,33.70
2023-04-20T16:05:29.910Z,33.73
2023-04-20T16:07:57.985Z,33.73
2023-04-20T16:10:27.371Z,33.89
2023-04-20T16:12:56.905Z,34.06
2023-04-20T16:15:24.820Z,33.78
2023-04-20T16:17:52.819Z,33.92
2023-04-20T16:20:21.096Z,33.66
2023-04-20T16:22:49.078Z,33.62
2023-04-20T16:25:22.820Z,34.05
2023-04-20T16:27:51.437Z,33.95
2023-04-20T16:30:20.794Z,33.70
2023-04-20T16:32:49.310Z,34.02
2023-04-20T16:35:17.363Z,34.08
2023-04-20T16:37:45.565Z,34.02
2023-04-20T16:40:13.627Z,34.07
2023-04-20T16:42:41.666Z,34.09
2023-04-20T16:45:23.106Z,34.14
2023-04-20T16:47:51.444Z,33.99
2023-04-20T16:50:20.568Z,34.39
2023-04-20T16:52:48.874Z,33.97
2023-04-20T16:55:17.057Z,34.11
2023-04-20T16:57:45.148Z,34.32
2023-04-20T17:00:23.964Z,34.11
2023-04-20T17:02:52.245Z,34.40
2023-04-20T17:05:20.397Z,34.28
2023-04-20T17:07:48.479Z,34.24
2023-04-20T17:10:16.406Z,34.43
2023-04-20T17:12:44.359Z,34.33
2023-04-20T17:15:28.896Z,34.39
2023-04-20T17:17:56.935Z,34.37
2023-04-20T17:20:24.960Z,34.61
2023-04-20T17:22:52.979Z,34.67
2023-04-20T17:25:20.899Z,34.76
2023-04-20T17:27:48.849Z,34.49
2023-04-20T17:37:50.602Z,34.56
2023-04-20T17:40:18.753Z,34.93
2023-04-20T17:42:46.840Z,34.75
2023-04-20T17:45:33.137Z,34.45
2023-04-20T17:48:01.281Z,34.63
2023-04-20T17:50:29.312Z,34.60
2023-04-20T17:52:58.702Z,34.64
2023-04-20T17:55:26.728Z,34.71
2023-04-20T17:57:54.800Z,34.72
2023-04-20T18:01:36.409Z,34.82
2023-04-20T18:04:04.728Z,34.79
2023-04-20T18:06:33.762Z,34.65
2023-04-20T18:09:05.022Z,34.83
2023-04-20T18:11:33.049Z,34.63
2023-04-20T18:14:01.131Z,35.00
2023-04-20T18:16:29.159Z,34.98
2023-04-20T18:18:57.245Z,34.88
2023-04-20T18:21:25.365Z,34.72
2023-04-20T18:23:53.395Z,34.90
2023-04-20T18:26:23.781Z,34.93
2023-04-20T18:28:51.783Z,34.88
2023-04-20T18:31:19.804Z,34.79
2023-04-20T18:33:47.822Z,35.07
2023-04-20T18:36:16.365Z,34.74
2023-04-20T18:38:44.455Z,35.12
2023-04-20T18:41:12.674Z,35.03
2023-04-20T18:43:44.794Z,35.02
2023-04-20T18:46:12.890Z,35.00
2023-04-20T18:48:41.124Z,35.14
2023-04-20T18:51:09.169Z,35.12
2023-04-20T18:53:37.159Z,35.01
2023-04-20T18:56:05.650Z,34.84
2023-04-20T18:58:33.718Z,34.90
2023-04-20T19:01:04.414Z,34.86
2023-04-20T19:03:32.717Z,35.12
2023-04-20T19:06:00.808Z,35.04
2023-04-20T19:08:29.999Z,34.79
2023-04-20T19:11:00.566Z,34.82
2023-04-20T19:13:28.566Z,34.89
2023-04-20T19:15:57.696Z,34.73
2023-04-20T19:18:27.858Z,34.87
2023-04-20T19:20:55.999Z,35.01
2023-04-20T19:23:24.036Z,34.76
2023-04-20T19:25:52.072Z,35.19
2023-04-20T19:28:21.641Z,34.92
2023-04-20T19:30:50.843Z,34.90
2023-04-20T19:33:18.936Z,34.83
2023-04-20T19:35:51.072Z,35.15
2023-04-20T19:38:19.462Z,34.86
2023-04-20T19:40:47.560Z,34.82
2023-04-20T19:43:16.980Z,35.24
2023-04-20T19:45:45.124Z,35.16
2023-04-20T19:48:13.158Z,34.83
2023-04-20T19:50:41.127Z,34.96
2023-04-20T19:53:10.798Z,34.83
2023-04-20T19:55:38.760Z,35.16
2023-04-20T19:58:09.324Z,35.14
2023-04-20T20:00:37.594Z,35.14
2023-04-20T20:03:08.172Z,35.27
2023-04-20T20:05:36.377Z,34.93
2023-04-20T20:08:05.082Z,35.11
2023-04-20T20:10:34.977Z,35.07
2023-04-20T20:13:03.067Z,35.08
2023-04-20T20:15:33.957Z,35.27
2023-04-20T20:18:01.996Z,35.07
2023-04-20T20:20:30.766Z,35.20
2023-04-20T20:22:58.891Z,35.31
2023-04-20T20:25:26.959Z,35.35
2023-04-20T20:27:56.367Z,35.47
2023-04-20T20:30:24.954Z,35.20
2023-04-20T20:32:53.366Z,35.37
2023-04-20T20:35:22.717Z,35.31
2023-04-20T20:37:50.762Z,35.48
2023-04-20T20:40:19.340Z,35.62
2023-04-20T20:42:47.957Z,35.45
2023-04-20T20:45:18.287Z,35.44
2023-04-20T20:47:46.599Z,35.30
2023-04-20T20:50:14.922Z,35.34
2023-04-20T20:52:42.930Z,35.40
2023-04-20T20:55:11.165Z,35.56
2023-04-20T20:57:39.295Z,35.52
2023-04-20T21:00:09.712Z,35.55
2023-04-20T21:02:39.448Z,35.67
2023-04-20T21:05:07.941Z,35.72
2023-04-20T21:07:35.958Z,35.65
2023-04-20T21:10:03.968Z,35.70
2023-04-20T21:12:32.046Z,35.54
2023-04-20T21:15:00.182Z,35.85
2023-04-20T21:17:48.189Z,35.79
2023-04-20T21:20:16.456Z,35.47
2023-04-20T21:22:44.455Z,35.60
2023-04-20T21:25:13.644Z,35.84
2023-04-20T21:27:41.700Z,35.65
2023-04-20T21:30:10.895Z,36.03
2023-04-20T21:32:38.970Z,35.73
2023-04-20T21:35:09.158Z,35.88
2023-04-20T21:37:37.143Z,35.89
2023-04-20T21:40:05.750Z,35.81
2023-04-20T21:42:33.744Z,35.94
2023-04-20T21:45:02.438Z,35.89
2023-04-20T21:47:30.409Z,35.97
2023-04-20T21:49:58.374Z,36.08
2023-04-20T21:52:27.837Z,35.97
2023-04-20T21:54:55.862Z,35.88
2023-04-20T21:57:23.912Z,35.79
2023-04-20T21:59:51.910Z,35.83
2023-04-20T22:02:22.999Z,35.67
2023-04-20T22:04:51.198Z,35.81
2023-04-20T22:07:19.410Z,35.76
2023-04-20T22:09:50.470Z,35.92
2023-04-20T22:12:28.972Z,35.77
2023-04-20T22:15:04.473Z,36.09
2023-04-20T22:17:32.694Z,36.03
2023-04-20T22:20:00.680Z,35.69
2023-04-20T22:22:28.601Z,35.81
2023-04-20T22:24:58.115Z,35.80
2023-04-20T22:27:26.128Z,35.75
2023-04-20T22:29:55.628Z,35.73
2023-04-20T22:32:23.663Z,35.74
2023-04-20T22:34:51.670Z,35.79
2023-04-20T22:37:19.749Z,36.18
2023-04-20T22:39:47.773Z,36.15
2023-04-20T22:42:17.064Z,35.91
2023-04-20T22:44:45.717Z,35.76
2023-04-20T22:47:13.817Z,36.25
2023-04-20T22:49:41.844Z,35.91
2023-04-20T22:52:09.786Z,35.83
2023-04-20T22:54:37.891Z,35.91
2023-04-20T22:57:05.909Z,36.08
2023-04-20T22:59:35.347Z,35.98
2023-04-20T23:02:03.870Z,36.10
2023-04-20T23:04:32.461Z,36.18
2023-04-20T23:07:01.267Z,36.24
2023-04-20T23:09:29.377Z,36.25
2023-04-20T23:11:57.358Z,35.86
2023-04-20T23:14:25.741Z,35.95
2023-04-20T23:16:55.168Z,36.15
2023-04-20T23:19:23.239Z,36.26
2023-04-20T23:21:51.270Z,35.92
2023-04-20T23:24:19.286Z,36.22
2023-04-20T23:26:47.361Z,35.93
2023-04-20T23:29:15.366Z,35.90
2023-04-20T23:31:43.459Z,36.16
2023-04-20T23:34:12.985Z,36.06
2023-04-20T23:36:41.071Z,35.97
2023-04-20T23:39:09.031Z,36.24
2023-04-20T23:41:37.156Z,36.11
2023-04-20T23:44:05.397Z,36.25
2023-04-20T23:46:34.557Z,36.00
2023-04-20T23:49:02.540Z,35.91
2023-04-20T23:51:32.227Z,36.42
2023-04-20T23:54:00.270Z,36.42
2023-04-20T23:56:28.294Z,35.98
2023-04-20T23:58:56.260Z,36.03
